createdAt,value
2019-01-20T00:00:35.705Z,0
2019-01-20T00:01:34.360Z,0
2019-01-20T00:02:32.932Z,0
2019-01-20T00:03:31.581Z,0
2019-01-20T00:04:30.128Z,0
2019-01-20T00:05:28.786Z,0
2019-01-20T00:06:27.363Z,0
2019-01-20T00:07:25.985Z,0
2019-01-20T00:08:24.532Z,0
2019-01-20T00:09:23.380Z,0
2019-01-20T00:10:21.920Z,0
2019-01-20T00:11:20.669Z,0
2019-01-20T00:12:19.266Z,0
2019-01-20T00:13:17.785Z,0
2019-01-20T00:14:16.342Z,0
2019-01-20T00:15:14.949Z,0
2019-01-20T00:16:13.556Z,0
2019-01-20T00:17:12.070Z,0
2019-01-20T00:18:10.601Z,0
2019-01-20T00:19:09.148Z,0
2019-01-20T00:20:07.697Z,0
2019-01-20T00:21:06.243Z,0
2019-01-20T00:22:05.117Z,0
2019-01-20T00:23:03.888Z,0
2019-01-20T00:24:02.492Z,0
2019-01-20T00:25:01.167Z,0
2019-01-20T00:25:59.700Z,0
2019-01-20T00:26:58.241Z,0
2019-01-20T00:27:56.762Z,0
2019-01-20T00:28:55.310Z,0
2019-01-20T00:29:53.847Z,0
2019-01-20T00:30:52.377Z,0
2019-01-20T00:31:51.088Z,0
2019-01-20T00:32:49.626Z,0
2019-01-20T00:33:48.179Z,0
2019-01-20T00:34:46.974Z,0
2019-01-20T00:35:45.521Z,0
2019-01-20T00:36:44.077Z,0
2019-01-20T00:37:42.739Z,0
2019-01-20T00:38:41.341Z,0
2019-01-20T00:39:39.876Z,0
2019-01-20T00:40:38.455Z,0
2019-01-20T00:41:36.992Z,0
2019-01-20T00:42:35.506Z,0
2019-01-20T00:43:34.047Z,0
2019-01-20T00:44:32.564Z,0
2019-01-20T00:45:31.108Z,0
2019-01-20T00:46:29.768Z,0
2019-01-20T00:47:28.366Z,0
2019-01-20T00:48:27.189Z,0
2019-01-20T00:49:25.697Z,0
2019-01-20T00:50:24.240Z,0
2019-01-20T00:51:23.034Z,0
2019-01-20T00:52:21.561Z,0
2019-01-20T00:53:20.114Z,0
2019-01-20T00:54:18.656Z,0
2019-01-20T00:55:17.200Z,0
2019-01-20T00:56:15.710Z,0
2019-01-20T00:57:14.382Z,0
2019-01-20T00:58:13.190Z,0
2019-01-20T00:59:11.739Z,0
2019-01-20T01:00:10.347Z,0
2019-01-20T01:01:09.193Z,0
2019-01-20T01:02:07.743Z,0
2019-01-20T01:03:06.257Z,0
2019-01-20T01:04:04.815Z,0
2019-01-20T01:05:03.376Z,0
2019-01-20T01:06:01.909Z,0
2019-01-20T01:07:00.451Z,0
2019-01-20T01:07:59.160Z,0
2019-01-20T01:08:57.713Z,0
2019-01-20T01:09:56.257Z,0
2019-01-20T01:10:55.022Z,0
2019-01-20T01:11:53.577Z,0
2019-01-20T01:12:52.120Z,0
2019-01-20T01:13:50.904Z,0
2019-01-20T01:14:49.462Z,0
2019-01-20T01:15:48.001Z,0
2019-01-20T01:16:46.550Z,0
2019-01-20T01:17:45.096Z,0
2019-01-20T01:18:43.667Z,0
2019-01-20T01:19:42.180Z,0
2019-01-20T01:20:41.212Z,0
2019-01-20T01:21:39.765Z,0
2019-01-20T01:22:38.429Z,0
2019-01-20T01:23:37.066Z,0
2019-01-20T01:24:35.570Z,0
2019-01-20T01:25:34.128Z,0
2019-01-20T01:26:33.140Z,0
2019-01-20T01:27:31.709Z,0
2019-01-20T01:28:30.324Z,0
2019-01-20T01:29:29.203Z,0
2019-01-20T01:30:27.741Z,0
2019-01-20T01:31:26.297Z,0
2019-01-20T01:32:24.861Z,0
2019-01-20T01:35:05.380Z,0
2019-01-20T01:36:03.922Z,0
2019-01-20T01:37:02.494Z,0
2019-01-20T01:38:01.160Z,0
2019-01-20T01:38:59.708Z,0
2019-01-20T01:39:58.223Z,0
2019-01-20T01:40:56.752Z,0
2019-01-20T01:41:55.337Z,0
2019-01-20T01:42:53.877Z,0
2019-01-20T01:43:52.487Z,0
2019-01-20T01:44:51.109Z,0
2019-01-20T01:45:49.647Z,0
2019-01-20T01:46:48.176Z,0
2019-01-20T01:47:46.892Z,0
2019-01-20T01:48:45.501Z,0
2019-01-20T01:49:44.019Z,0
2019-01-20T01:50:42.647Z,0
2019-01-20T01:51:41.245Z,0
2019-01-20T01:52:39.859Z,0
2019-01-20T01:53:38.459Z,0
2019-01-20T01:54:37.036Z,0
2019-01-20T01:55:35.649Z,0
2019-01-20T01:56:34.182Z,0
2019-01-20T01:57:32.971Z,0
2019-01-20T01:58:31.516Z,0
2019-01-20T01:59:30.859Z,0
2019-01-20T02:00:28.815Z,0
2019-01-20T02:02:44.773Z,0
2019-01-20T02:03:43.296Z,0
2019-01-20T02:04:41.882Z,0
2019-01-20T02:05:40.393Z,0
2019-01-20T02:06:39.245Z,0
2019-01-20T02:07:37.820Z,0
2019-01-20T02:08:36.514Z,0
2019-01-20T02:09:35.184Z,0
2019-01-20T02:10:33.717Z,0
2019-01-20T02:11:32.258Z,0
2019-01-20T02:12:30.795Z,0
2019-01-20T02:13:29.342Z,0
2019-01-20T02:14:27.854Z,0
2019-01-20T02:15:26.389Z,0
2019-01-20T02:16:24.956Z,0
2019-01-20T02:17:23.454Z,0
2019-01-20T02:18:21.982Z,0
2019-01-20T02:19:20.510Z,0
2019-01-20T02:20:19.045Z,0
2019-01-20T02:21:17.594Z,0
2019-01-20T02:22:16.119Z,0
2019-01-20T02:23:15.116Z,0
2019-01-20T02:24:13.767Z,0
2019-01-20T02:25:12.450Z,0
2019-01-20T02:26:11.015Z,0
2019-01-20T02:27:09.559Z,0
2019-01-20T02:28:08.108Z,0
2019-01-20T02:29:06.653Z,0
2019-01-20T02:30:05.228Z,0
2019-01-20T02:31:03.740Z,0
2019-01-20T02:32:02.285Z,0
2019-01-20T02:33:00.853Z,0
2019-01-20T02:33:59.395Z,0
2019-01-20T02:34:57.937Z,0
2019-01-20T02:35:56.882Z,0
2019-01-20T02:36:55.581Z,0
2019-01-20T02:37:54.101Z,0
2019-01-20T02:38:52.742Z,0
2019-01-20T02:39:51.315Z,0
2019-01-20T02:40:49.841Z,0
2019-01-20T02:41:54.984Z,0
2019-01-20T02:42:46.917Z,0
2019-01-20T02:43:45.446Z,0
2019-01-20T02:44:43.954Z,0
2019-01-20T02:45:42.488Z,0
2019-01-20T02:46:41.025Z,0
2019-01-20T02:47:39.550Z,0
2019-01-20T02:48:38.072Z,0
2019-01-20T02:49:36.615Z,0
2019-01-20T02:50:35.211Z,0
2019-01-20T02:51:33.769Z,0
2019-01-20T02:52:32.311Z,0
2019-01-20T02:53:31.221Z,0
2019-01-20T02:54:29.785Z,0
2019-01-20T02:55:28.297Z,0
2019-01-20T02:56:27.127Z,0
2019-01-20T02:57:25.645Z,0
2019-01-20T02:58:24.200Z,0
2019-01-20T02:59:22.774Z,0
2019-01-20T03:00:21.311Z,0
2019-01-20T03:01:20.023Z,0
2019-01-20T03:02:18.734Z,0
2019-01-20T03:03:17.372Z,0
2019-01-20T03:04:15.917Z,0
2019-01-20T03:05:14.453Z,0
2019-01-20T03:06:13.159Z,0
2019-01-20T03:07:11.842Z,0
2019-01-20T03:08:10.455Z,0
2019-01-20T03:09:09.273Z,0
2019-01-20T03:10:07.800Z,0
2019-01-20T03:11:06.447Z,0
2019-01-20T03:12:05.246Z,0
2019-01-20T03:13:03.792Z,0
2019-01-20T03:14:02.338Z,0
2019-01-20T03:15:00.907Z,0
2019-01-20T03:15:59.484Z,0
2019-01-20T03:16:58.000Z,0
2019-01-20T03:17:56.536Z,0
2019-01-20T03:18:55.069Z,0
2019-01-20T03:19:53.614Z,0
2019-01-20T03:20:52.173Z,0
2019-01-20T03:21:50.699Z,0
2019-01-20T03:22:49.677Z,0
2019-01-20T03:23:48.216Z,0
2019-01-20T03:24:47.001Z,0
2019-01-20T03:25:45.554Z,0
2019-01-20T03:26:44.107Z,0
2019-01-20T03:27:42.776Z,0
2019-01-20T03:28:41.588Z,0
2019-01-20T03:29:40.158Z,0
2019-01-20T03:30:38.853Z,0
2019-01-20T03:31:37.534Z,0
2019-01-20T03:32:36.063Z,0
2019-01-20T03:33:34.696Z,0
2019-01-20T03:34:33.240Z,0
2019-01-20T03:35:31.787Z,0
2019-01-20T03:36:30.363Z,0
2019-01-20T03:37:28.909Z,0
2019-01-20T03:38:27.469Z,0
2019-01-20T03:39:26.008Z,0
2019-01-20T03:40:24.589Z,0
2019-01-20T03:41:23.362Z,0
2019-01-20T03:42:21.885Z,0
2019-01-20T03:43:20.522Z,0
2019-01-20T03:44:19.338Z,0
2019-01-20T03:45:17.857Z,0
2019-01-20T03:46:16.405Z,0
2019-01-20T03:47:14.948Z,0
2019-01-20T03:48:13.540Z,0
2019-01-20T03:49:12.290Z,0
2019-01-20T03:50:11.107Z,0
2019-01-20T03:51:09.655Z,0
2019-01-20T03:52:08.200Z,0
2019-01-20T03:53:06.832Z,0
2019-01-20T03:54:05.469Z,0
2019-01-20T03:55:04.006Z,0
2019-01-20T03:56:02.566Z,0
2019-01-20T03:57:01.146Z,0
2019-01-20T03:57:59.702Z,0
2019-01-20T03:58:58.244Z,0
2019-01-20T03:59:56.762Z,0
2019-01-20T04:00:55.289Z,0
2019-01-20T04:01:53.825Z,0
2019-01-20T04:02:52.377Z,0
2019-01-20T04:03:50.967Z,0
2019-01-20T04:04:49.616Z,0
2019-01-20T04:05:48.160Z,0
2019-01-20T04:06:46.952Z,0
2019-01-20T04:07:45.629Z,0
2019-01-20T04:08:44.179Z,0
2019-01-20T04:09:42.795Z,0
2019-01-20T04:10:41.333Z,0
2019-01-20T04:11:39.872Z,0
2019-01-20T04:12:38.409Z,0
2019-01-20T04:13:36.948Z,0
2019-01-20T04:14:35.492Z,0
2019-01-20T04:15:34.040Z,0
2019-01-20T04:16:32.595Z,0
2019-01-20T04:17:31.525Z,0
2019-01-20T04:18:30.069Z,0
2019-01-20T04:19:28.642Z,0
2019-01-20T04:20:27.459Z,0
2019-01-20T04:21:26.004Z,0
2019-01-20T04:22:24.535Z,0
2019-01-20T04:23:23.205Z,0
2019-01-20T04:24:21.741Z,0
2019-01-20T04:25:20.414Z,0
2019-01-20T04:26:19.232Z,0
2019-01-20T04:27:17.779Z,0
2019-01-20T04:28:16.318Z,0
2019-01-20T04:29:15.081Z,0
2019-01-20T04:30:13.659Z,0
2019-01-20T04:31:12.434Z,0
2019-01-20T04:32:11.326Z,0
2019-01-20T04:33:09.858Z,0
2019-01-20T04:34:08.423Z,0
2019-01-20T04:35:07.150Z,0
2019-01-20T04:36:05.687Z,0
2019-01-20T04:37:04.257Z,0
2019-01-20T04:38:02.815Z,0
2019-01-20T04:39:01.352Z,0
2019-01-20T04:39:59.928Z,0
2019-01-20T04:40:58.519Z,0
2019-01-20T04:41:57.308Z,0
2019-01-20T04:42:55.855Z,0
2019-01-20T04:43:54.538Z,0
2019-01-20T04:44:53.350Z,0
2019-01-20T04:45:51.883Z,0
2019-01-20T04:46:50.424Z,0
2019-01-20T04:47:48.990Z,0
2019-01-20T04:48:47.537Z,0
2019-01-20T04:49:46.074Z,0
2019-01-20T04:50:44.612Z,0
2019-01-20T04:51:43.207Z,0
2019-01-20T04:52:41.933Z,0
2019-01-20T04:53:40.505Z,0
2019-01-20T04:54:39.182Z,0
2019-01-20T04:55:37.694Z,0
2019-01-20T04:56:36.234Z,0
2019-01-20T04:57:35.129Z,0
2019-01-20T04:58:33.692Z,0
2019-01-20T04:59:32.222Z,0
2019-01-20T05:00:31.305Z,0
2019-01-20T05:01:29.856Z,0
2019-01-20T05:02:28.390Z,0
2019-01-20T05:03:27.127Z,0
2019-01-20T05:04:25.679Z,0
2019-01-20T05:05:24.222Z,0
2019-01-20T05:06:22.777Z,0
2019-01-20T05:07:21.307Z,0
2019-01-20T05:08:19.845Z,0
2019-01-20T05:09:18.399Z,0
2019-01-20T05:10:16.937Z,0
2019-01-20T05:11:15.591Z,0
2019-01-20T05:12:14.186Z,0
2019-01-20T05:13:12.988Z,0
2019-01-20T05:14:11.635Z,0
2019-01-20T05:15:10.183Z,0
2019-01-20T05:16:08.832Z,0
2019-01-20T05:17:07.493Z,0
2019-01-20T05:18:06.020Z,0
2019-01-20T05:19:04.572Z,0
2019-01-20T05:20:03.440Z,0
2019-01-20T05:21:01.987Z,0
2019-01-20T05:22:00.637Z,0
2019-01-20T05:22:59.194Z,0
2019-01-20T05:23:57.717Z,0
2019-01-20T05:24:56.240Z,0
2019-01-20T05:25:54.965Z,0
2019-01-20T05:26:53.505Z,0
2019-01-20T05:27:52.046Z,0
2019-01-20T05:28:50.559Z,0
2019-01-20T05:29:49.218Z,0
2019-01-20T05:30:47.759Z,0
2019-01-20T05:31:46.291Z,0
2019-01-20T05:32:45.308Z,0
2019-01-20T05:33:43.857Z,0
2019-01-20T05:34:42.554Z,0
2019-01-20T05:35:41.171Z,0
2019-01-20T05:36:39.757Z,0
2019-01-20T05:37:38.318Z,0
2019-01-20T05:38:36.849Z,0
2019-01-20T05:39:35.375Z,0
2019-01-20T05:40:33.968Z,0
2019-01-20T05:41:32.526Z,0
2019-01-20T05:42:31.331Z,0
2019-01-20T05:43:29.931Z,0
2019-01-20T05:44:28.474Z,0
2019-01-20T05:45:29.231Z,0
2019-01-20T05:46:27.769Z,0
2019-01-20T05:47:26.319Z,0
2019-01-20T05:48:24.849Z,0
2019-01-20T05:49:23.405Z,0
2019-01-20T05:50:22.525Z,0
2019-01-20T05:51:21.377Z,0
2019-01-20T05:52:19.907Z,0
2019-01-20T05:53:18.444Z,0
2019-01-20T05:54:16.982Z,0
2019-01-20T05:55:15.534Z,0
2019-01-20T05:56:14.065Z,0
2019-01-20T05:57:12.606Z,0
2019-01-20T05:58:11.155Z,0
2019-01-20T05:59:09.709Z,0
2019-01-20T06:00:08.321Z,0
2019-01-20T06:01:07.191Z,0
2019-01-20T06:02:05.739Z,0
2019-01-20T06:03:04.285Z,0
2019-01-20T06:04:03.069Z,0
2019-01-20T06:05:01.642Z,0
2019-01-20T06:06:00.184Z,0
2019-01-20T06:06:58.733Z,0
2019-01-20T06:07:57.271Z,0
2019-01-20T06:08:55.872Z,0
2019-01-20T06:09:54.419Z,0
2019-01-20T06:10:53.357Z,0
2019-01-20T06:11:51.912Z,0
2019-01-20T06:12:54.034Z,0
2019-01-20T06:13:49.218Z,0
2019-01-20T06:14:47.781Z,0
2019-01-20T06:15:46.328Z,0
2019-01-20T06:16:44.877Z,0
2019-01-20T06:17:43.423Z,0
2019-01-20T06:18:41.963Z,0
2019-01-20T06:19:40.517Z,0
2019-01-20T06:20:39.047Z,0
2019-01-20T06:21:37.737Z,0
2019-01-20T06:22:36.295Z,0
2019-01-20T06:23:35.045Z,0
2019-01-20T06:24:33.731Z,0
2019-01-20T06:25:32.262Z,0
2019-01-20T06:26:30.928Z,0
2019-01-20T06:27:29.461Z,0
2019-01-20T06:28:28.032Z,0
2019-01-20T06:29:26.576Z,0
2019-01-20T06:30:25.286Z,0
2019-01-20T06:31:23.839Z,0
2019-01-20T06:32:22.368Z,0
2019-01-20T06:33:21.078Z,0
2019-01-20T06:34:19.677Z,0
2019-01-20T06:35:18.217Z,0
2019-01-20T06:36:17.039Z,0
2019-01-20T06:37:15.595Z,0
2019-01-20T06:38:14.145Z,0
2019-01-20T06:39:12.747Z,0
2019-01-20T06:40:11.282Z,0
2019-01-20T06:41:09.828Z,0
2019-01-20T06:42:08.376Z,0
2019-01-20T06:43:07.269Z,0
2019-01-20T06:44:05.811Z,4
2019-01-20T06:45:04.358Z,4
2019-01-20T06:46:03.038Z,0
2019-01-20T06:47:01.671Z,0
2019-01-20T06:48:00.196Z,4
2019-01-20T06:48:58.811Z,4
2019-01-20T06:49:57.375Z,4
2019-01-20T06:50:55.929Z,4
2019-01-20T06:51:54.462Z,4
2019-01-20T06:52:53.012Z,8
2019-01-20T06:53:51.717Z,8
2019-01-20T06:54:50.260Z,8
2019-01-20T06:55:49.142Z,8
2019-01-20T06:56:47.718Z,12
2019-01-20T06:57:46.276Z,12
2019-01-20T06:58:44.936Z,12
2019-01-20T06:59:43.643Z,16
2019-01-20T07:00:42.194Z,16
2019-01-20T07:01:40.790Z,20
2019-01-20T07:02:39.651Z,24
2019-01-20T07:03:38.183Z,24
2019-01-20T07:04:37.034Z,28
2019-01-20T07:05:35.563Z,32
2019-01-20T07:06:34.107Z,36
2019-01-20T07:07:32.643Z,40
2019-01-20T07:08:31.181Z,44
2019-01-20T07:09:29.724Z,48
2019-01-20T07:10:28.446Z,52
2019-01-20T07:11:27.322Z,56
2019-01-20T07:12:25.847Z,64
2019-01-20T07:13:24.388Z,68
2019-01-20T07:14:23.263Z,72
2019-01-20T07:15:21.820Z,80
2019-01-20T07:16:20.356Z,84
2019-01-20T07:17:18.882Z,92
2019-01-20T07:18:17.405Z,96
2019-01-20T07:19:15.950Z,104
2019-01-20T07:20:14.608Z,112
2019-01-20T07:21:13.428Z,116
2019-01-20T07:22:11.956Z,124
2019-01-20T07:23:10.562Z,128
2019-01-20T07:24:09.310Z,136
2019-01-20T07:25:07.855Z,148
2019-01-20T07:26:06.380Z,156
2019-01-20T07:27:04.984Z,164
2019-01-20T07:28:03.564Z,176
2019-01-20T07:29:02.119Z,188
2019-01-20T07:30:00.623Z,196
2019-01-20T07:30:59.194Z,208
2019-01-20T07:31:57.805Z,220
2019-01-20T07:32:56.383Z,224
2019-01-20T07:33:55.241Z,232
2019-01-20T07:34:53.773Z,228
2019-01-20T07:35:52.296Z,232
2019-01-20T07:36:51.200Z,228
2019-01-20T07:37:49.807Z,228
2019-01-20T07:38:48.359Z,228
2019-01-20T07:39:47.274Z,228
2019-01-20T07:40:45.808Z,228
2019-01-20T07:41:44.360Z,232
2019-01-20T07:42:43.233Z,236
2019-01-20T07:43:41.766Z,244
2019-01-20T07:44:41.611Z,248
2019-01-20T07:45:39.556Z,260
2019-01-20T07:46:38.101Z,272
2019-01-20T07:47:36.730Z,280
2019-01-20T07:48:35.308Z,288
2019-01-20T07:49:33.823Z,300
2019-01-20T07:50:32.376Z,312
2019-01-20T07:51:30.920Z,320
2019-01-20T07:52:29.495Z,336
2019-01-20T07:53:28.035Z,352
2019-01-20T07:54:26.584Z,364
2019-01-20T07:55:25.180Z,368
2019-01-20T07:56:23.816Z,372
2019-01-20T07:57:22.925Z,376
2019-01-20T07:58:21.484Z,388
2019-01-20T07:59:20.025Z,396
2019-01-20T08:00:18.560Z,408
2019-01-20T08:01:17.123Z,424
2019-01-20T08:02:15.652Z,444
2019-01-20T08:03:14.251Z,460
2019-01-20T08:04:12.777Z,480
2019-01-20T08:05:11.676Z,500
2019-01-20T08:06:10.246Z,516
2019-01-20T08:07:09.140Z,528
2019-01-20T08:08:07.670Z,536
2019-01-20T08:09:06.206Z,552
2019-01-20T08:10:04.723Z,560
2019-01-20T08:11:03.279Z,564
2019-01-20T08:12:01.864Z,564
2019-01-20T08:13:00.405Z,568
2019-01-20T08:13:59.354Z,572
2019-01-20T08:14:58.023Z,576
2019-01-20T08:17:38.144Z,584
2019-01-20T08:18:36.768Z,588
2019-01-20T08:19:35.310Z,592
2019-01-20T08:20:33.960Z,588
2019-01-20T08:21:32.536Z,588
2019-01-20T08:22:31.434Z,584
2019-01-20T08:23:30.008Z,588
2019-01-20T08:24:28.682Z,592
2019-01-20T08:25:27.266Z,608
2019-01-20T08:26:26.188Z,628
2019-01-20T08:27:25.496Z,660
2019-01-20T08:28:24.301Z,696
2019-01-20T08:29:23.232Z,720
2019-01-20T08:30:21.747Z,736
2019-01-20T08:31:20.500Z,744
2019-01-20T08:32:19.415Z,740
2019-01-20T08:33:17.950Z,732
2019-01-20T08:34:16.508Z,728
2019-01-20T08:35:15.434Z,716
2019-01-20T08:36:14.290Z,704
2019-01-20T08:37:13.120Z,696
2019-01-20T08:38:11.864Z,692
2019-01-20T08:39:10.444Z,692
2019-01-20T08:40:08.986Z,696
2019-01-20T08:41:08.084Z,700
2019-01-20T08:42:06.723Z,704
2019-01-20T08:43:05.456Z,704
2019-01-20T08:46:30.510Z,728
2019-01-20T08:47:29.487Z,736
2019-01-20T08:48:28.033Z,748
2019-01-20T08:49:26.698Z,760
2019-01-20T08:50:32.895Z,772
2019-01-20T08:51:38.902Z,784
2019-01-20T08:52:37.578Z,788
2019-01-20T08:53:36.683Z,784
2019-01-20T08:54:35.586Z,776
2019-01-20T08:55:34.142Z,772
2019-01-20T08:56:32.740Z,768
2019-01-20T08:57:31.565Z,760
2019-01-20T08:58:30.088Z,756
2019-01-20T08:59:28.617Z,748
2019-01-20T09:00:27.245Z,740
2019-01-20T09:01:25.812Z,732
2019-01-20T09:02:24.441Z,728
2019-01-20T09:03:23.426Z,720
2019-01-20T09:04:21.974Z,704
2019-01-20T09:05:20.496Z,696
2019-01-20T09:06:19.226Z,696
2019-01-20T09:07:17.761Z,692
2019-01-20T09:08:16.514Z,700
2019-01-20T09:09:15.438Z,708
2019-01-20T09:10:13.983Z,732
2019-01-20T09:11:12.553Z,756
2019-01-20T09:12:11.397Z,780
2019-01-20T09:13:09.959Z,804
2019-01-20T09:14:08.501Z,820
2019-01-20T09:15:07.537Z,844
2019-01-20T09:16:06.069Z,864
2019-01-20T09:17:04.781Z,884
2019-01-20T09:18:03.396Z,904
2019-01-20T09:19:01.999Z,932
2019-01-20T09:20:00.555Z,952
2019-01-20T09:20:59.451Z,968
2019-01-20T09:21:57.992Z,980
2019-01-20T09:22:56.540Z,992
2019-01-20T09:23:55.163Z,992
2019-01-20T09:24:53.806Z,988
2019-01-20T09:25:52.364Z,984
2019-01-20T09:26:50.969Z,988
2019-01-20T09:27:49.580Z,988
2019-01-20T09:28:48.117Z,992
2019-01-20T09:29:46.654Z,992
2019-01-20T09:30:45.243Z,1000
2019-01-20T09:31:43.976Z,1012
2019-01-20T09:32:42.506Z,1024
2019-01-20T09:33:41.324Z,1040
2019-01-20T09:34:39.870Z,1060
2019-01-20T09:35:38.411Z,1076
2019-01-20T09:36:37.158Z,1096
2019-01-20T09:37:35.682Z,1108
2019-01-20T09:38:34.237Z,1124
2019-01-20T09:39:32.774Z,1128
2019-01-20T09:40:31.315Z,1132
2019-01-20T09:41:29.834Z,1124
2019-01-20T09:42:28.397Z,1116
2019-01-20T09:43:26.919Z,1104
2019-01-20T09:44:25.439Z,1096
2019-01-20T09:45:23.991Z,1084
2019-01-20T09:46:22.571Z,1072
2019-01-20T09:47:21.521Z,1068
2019-01-20T09:48:20.063Z,1068
2019-01-20T09:49:18.595Z,1064
2019-01-20T09:50:17.404Z,1072
2019-01-20T09:51:15.956Z,1076
2019-01-20T09:52:14.510Z,1096
2019-01-20T09:53:13.076Z,1120
2019-01-20T09:54:11.593Z,1136
2019-01-20T09:55:10.141Z,1156
2019-01-20T09:56:08.707Z,1180
2019-01-20T09:57:07.579Z,1192
2019-01-20T09:58:06.163Z,1208
2019-01-20T09:59:04.757Z,1212
2019-01-20T10:00:03.546Z,1216
2019-01-20T10:01:02.080Z,1228
2019-01-20T10:02:00.660Z,1248
2019-01-20T10:02:59.201Z,1272
2019-01-20T10:03:57.789Z,1296
2019-01-20T10:04:56.353Z,1320
2019-01-20T10:05:54.938Z,1336
2019-01-20T10:06:53.669Z,1356
2019-01-20T10:09:33.894Z,1404
2019-01-20T10:10:32.456Z,1440
2019-01-20T10:11:31.188Z,1472
2019-01-20T10:12:29.723Z,1504
2019-01-20T10:13:28.283Z,1544
2019-01-20T10:14:26.796Z,1576
2019-01-20T10:15:25.336Z,1600
2019-01-20T10:16:23.932Z,1636
2019-01-20T10:17:22.497Z,1664
2019-01-20T10:18:21.437Z,1692
2019-01-20T10:19:19.978Z,1712
2019-01-20T10:20:18.744Z,1732
2019-01-20T10:21:17.310Z,1752
2019-01-20T10:22:15.834Z,1772
2019-01-20T10:23:14.393Z,1792
2019-01-20T10:24:12.926Z,1808
2019-01-20T10:25:15.109Z,1816
2019-01-20T10:26:10.009Z,1816
2019-01-20T10:27:08.550Z,1812
2019-01-20T10:28:07.097Z,1804
2019-01-20T10:29:05.787Z,1800
2019-01-20T10:30:04.320Z,1776
2019-01-20T10:31:03.082Z,1748
2019-01-20T10:32:01.833Z,1716
2019-01-20T10:33:00.350Z,1696
2019-01-20T10:33:59.004Z,1676
2019-01-20T10:34:57.572Z,1664
2019-01-20T10:37:20.169Z,1656
2019-01-20T10:38:18.701Z,1652
2019-01-20T10:39:17.469Z,1664
2019-01-20T10:40:16.043Z,1672
2019-01-20T10:41:14.711Z,1684
2019-01-20T10:42:15.529Z,1696
2019-01-20T10:43:14.084Z,1704
2019-01-20T10:44:12.614Z,1712
2019-01-20T10:45:11.439Z,1704
2019-01-20T10:46:09.985Z,1708
2019-01-20T10:47:08.665Z,1704
2019-01-20T10:48:07.498Z,1700
2019-01-20T10:49:06.101Z,1708
2019-01-20T10:50:04.636Z,1716
2019-01-20T10:51:03.190Z,1728
2019-01-20T10:52:01.743Z,1728
2019-01-20T10:54:42.175Z,1716
2019-01-20T10:55:40.916Z,1720
2019-01-20T10:56:39.620Z,1740
2019-01-20T10:57:38.197Z,1752
2019-01-20T10:58:36.755Z,1764
2019-01-20T10:59:35.606Z,1768
2019-01-20T11:00:34.136Z,1772
2019-01-20T11:01:32.835Z,1768
2019-01-20T11:02:31.590Z,1760
2019-01-20T11:03:30.137Z,1752
2019-01-20T11:04:28.723Z,1732
2019-01-20T11:05:30.461Z,1716
2019-01-20T11:06:25.843Z,1700
2019-01-20T11:07:24.426Z,1692
2019-01-20T11:08:23.401Z,1684
2019-01-20T11:09:21.945Z,1676
2019-01-20T11:10:20.478Z,1676
2019-01-20T11:11:19.244Z,1684
2019-01-20T11:13:42.040Z,1712
2019-01-20T11:14:40.591Z,1720
2019-01-20T11:15:39.420Z,1728
2019-01-20T11:16:37.966Z,1732
2019-01-20T11:17:36.587Z,1740
2019-01-20T11:18:35.266Z,1752
2019-01-20T11:19:33.879Z,1756
2019-01-20T11:20:32.457Z,1764
2019-01-20T11:21:30.961Z,1772
2019-01-20T11:22:29.878Z,1788
2019-01-20T11:23:28.436Z,1808
2019-01-20T11:24:27.173Z,1824
2019-01-20T11:27:07.400Z,1884
2019-01-20T11:28:05.944Z,1896
2019-01-20T11:29:04.477Z,1900
2019-01-20T11:30:03.524Z,1912
2019-01-20T11:31:02.180Z,1932
2019-01-20T11:32:00.798Z,1940
2019-01-20T11:32:59.360Z,1940
2019-01-20T11:33:57.911Z,1940
2019-01-20T11:34:56.500Z,1952
2019-01-20T11:35:55.135Z,1964
2019-01-20T11:36:53.880Z,1972
2019-01-20T11:37:52.438Z,1972
2019-01-20T11:38:51.132Z,1976
2019-01-20T11:39:49.868Z,1976
2019-01-20T11:40:48.416Z,1972
2019-01-20T11:41:47.040Z,1960
2019-01-20T11:42:45.618Z,1952
2019-01-20T11:43:44.136Z,1944
2019-01-20T11:44:42.701Z,1932
2019-01-20T11:45:41.272Z,1920
2019-01-20T11:46:39.987Z,1916
2019-01-20T11:50:19.034Z,1916
2019-01-20T11:51:17.621Z,1920
2019-01-20T11:52:16.167Z,1920
2019-01-20T11:54:56.632Z,1940
2019-01-20T11:55:55.462Z,1960
2019-01-20T11:58:35.701Z,2032
2019-01-20T11:59:34.209Z,2052
2019-01-20T12:00:32.784Z,2064
2019-01-20T12:01:31.596Z,2072
2019-01-20T12:02:30.164Z,2060
2019-01-20T12:03:28.696Z,2044
2019-01-20T12:04:27.510Z,2016
2019-01-20T12:05:26.083Z,1988
2019-01-20T12:06:24.598Z,1956
2019-01-20T12:07:23.120Z,1920
2019-01-20T12:08:21.674Z,1892
2019-01-20T12:09:20.240Z,1872
2019-01-20T12:10:18.759Z,1856
2019-01-20T12:11:17.315Z,1848
2019-01-20T12:12:15.849Z,1844
2019-01-20T12:13:14.662Z,1852
2019-01-20T12:14:13.439Z,1856
2019-01-20T12:15:11.987Z,1864
2019-01-20T12:16:10.505Z,1868
2019-01-20T12:17:09.458Z,1864
2019-01-20T12:18:08.032Z,1864
2019-01-20T12:19:06.563Z,1864
2019-01-20T12:20:05.499Z,1868
2019-01-20T12:21:04.023Z,1868
2019-01-20T12:22:02.561Z,1876
2019-01-20T12:23:01.312Z,1880
2019-01-20T12:24:01.504Z,1880
2019-01-20T12:25:00.058Z,1880
2019-01-20T12:25:58.611Z,1872
2019-01-20T12:26:57.367Z,1856
2019-01-20T12:27:55.912Z,1840
2019-01-20T12:28:54.439Z,1824
2019-01-20T12:29:52.966Z,1808
2019-01-20T12:30:51.539Z,1792
2019-01-20T12:31:50.072Z,1764
2019-01-20T12:34:30.195Z,1684
2019-01-20T12:35:28.781Z,1668
2019-01-20T12:36:27.610Z,1648
2019-01-20T12:37:26.161Z,1644
2019-01-20T12:38:24.788Z,1652
2019-01-20T12:39:23.495Z,1660
2019-01-20T12:40:22.006Z,1664
2019-01-20T12:41:20.549Z,1660
2019-01-20T12:44:00.678Z,1608
2019-01-20T12:44:59.640Z,1596
2019-01-20T12:45:58.146Z,1568
2019-01-20T12:46:56.686Z,1544
2019-01-20T12:47:55.512Z,1528
2019-01-20T12:48:54.104Z,1520
2019-01-20T12:49:52.671Z,1512
2019-01-20T12:50:51.266Z,1508
2019-01-20T12:51:49.977Z,1492
2019-01-20T12:52:48.510Z,1468
2019-01-20T12:53:47.033Z,1436
2019-01-20T12:54:45.695Z,1396
2019-01-20T12:55:44.248Z,1356
2019-01-20T12:56:42.898Z,1320
2019-01-20T12:57:41.863Z,1296
2019-01-20T12:58:40.399Z,1280
2019-01-20T12:59:39.066Z,1280
2019-01-20T13:00:37.741Z,1272
2019-01-20T13:03:00.544Z,1244
2019-01-20T13:03:59.167Z,1224
2019-01-20T13:04:57.708Z,1208
2019-01-20T13:05:56.303Z,1192
2019-01-20T13:06:54.809Z,1180
2019-01-20T13:07:53.374Z,1168
2019-01-20T13:08:52.057Z,1164
2019-01-20T13:09:50.596Z,1160
2019-01-20T13:10:49.436Z,1160
2019-01-20T13:14:28.054Z,1152
2019-01-20T13:15:26.736Z,1156
2019-01-20T13:16:25.297Z,1156
2019-01-20T13:17:24.237Z,1160
2019-01-20T13:18:22.955Z,1164
2019-01-20T13:19:21.692Z,1160
2019-01-20T13:20:20.231Z,1144
2019-01-20T13:21:18.792Z,1116
2019-01-20T13:22:17.353Z,1088
2019-01-20T13:23:15.955Z,1056
2019-01-20T13:24:14.475Z,1020
2019-01-20T13:25:13.056Z,988
2019-01-20T13:26:11.930Z,956
2019-01-20T13:27:10.497Z,932
2019-01-20T13:28:09.119Z,924
2019-01-20T13:29:07.781Z,924
2019-01-20T13:30:06.342Z,932
2019-01-20T13:31:05.017Z,948
2019-01-20T13:32:03.618Z,968
2019-01-20T13:33:02.203Z,988
2019-01-20T13:34:00.775Z,1008
2019-01-20T13:34:59.570Z,1024
2019-01-20T13:35:58.113Z,1044
2019-01-20T13:36:56.665Z,1076
2019-01-20T13:39:36.987Z,1140
2019-01-20T13:40:35.533Z,1164
2019-01-20T13:41:34.045Z,1180
2019-01-20T13:42:32.605Z,1196
2019-01-20T13:43:31.129Z,1208
2019-01-20T13:44:29.695Z,1212
2019-01-20T13:47:09.702Z,1164
2019-01-20T13:48:08.249Z,1132
2019-01-20T13:49:06.799Z,1096
2019-01-20T13:51:47.552Z,1028
2019-01-20T13:52:46.106Z,1016
2019-01-20T13:53:44.640Z,1012
2019-01-20T13:54:43.187Z,1012
2019-01-20T13:57:23.620Z,1008
2019-01-20T13:58:22.172Z,1008
2019-01-20T13:59:20.720Z,1000
2019-01-20T14:00:19.538Z,996
2019-01-20T14:01:18.059Z,1000
2019-01-20T14:02:16.612Z,1008
2019-01-20T14:05:55.663Z,1032
2019-01-20T14:06:54.231Z,1032
2019-01-20T14:07:52.786Z,1032
2019-01-20T14:08:51.555Z,1028
2019-01-20T14:09:50.146Z,1024
2019-01-20T14:10:48.696Z,1016
2019-01-20T14:11:47.239Z,1008
2019-01-20T14:12:45.782Z,996
2019-01-20T14:13:44.322Z,992
2019-01-20T14:14:42.897Z,984
2019-01-20T14:15:43.112Z,976
2019-01-20T14:16:41.909Z,968
2019-01-20T14:17:40.448Z,956
2019-01-20T14:18:45.149Z,944
2019-01-20T14:19:37.840Z,936
2019-01-20T14:20:36.415Z,920
2019-01-20T14:21:35.061Z,912
2019-01-20T14:22:33.825Z,904
2019-01-20T14:23:32.372Z,896
2019-01-20T14:24:30.902Z,892
2019-01-20T14:25:29.414Z,892
2019-01-20T14:26:27.979Z,892